createdAt,value
2023-02-06T00:00:21.833Z,5.00
2023-02-06T00:01:24.247Z,5.00
2023-02-06T00:02:26.079Z,5.00
2023-02-06T00:03:28.977Z,5.00
2023-02-06T00:04:30.792Z,5.00
2023-02-06T00:05:33.452Z,5.10
2023-02-06T00:06:35.727Z,5.10
2023-02-06T00:07:37.489Z,5.10
2023-02-06T00:08:39.597Z,5.10
2023-02-06T00:09:42.188Z,5.10
2023-02-06T00:10:44.097Z,5.10
2023-02-06T00:11:45.835Z,5.10
2023-02-06T00:12:47.633Z,5.10
2023-02-06T00:13:50.012Z,5.10
2023-02-06T00:14:51.813Z,5.20
2023-02-06T00:15:53.899Z,5.20
2023-02-06T00:16:55.716Z,5.20
2023-02-06T00:17:57.515Z,5.20
2023-02-06T00:19:00.190Z,5.20
2023-02-06T00:20:02.166Z,5.20
2023-02-06T00:21:04.158Z,5.20
2023-02-06T00:22:06.080Z,5.20
2023-02-06T00:23:07.902Z,5.20
2023-02-06T00:24:09.920Z,5.20
2023-02-06T00:25:11.739Z,5.20
2023-02-06T00:26:13.624Z,5.30
2023-02-06T00:27:16.086Z,5.30
2023-02-06T00:28:18.185Z,5.30
2023-02-06T00:29:20.098Z,5.30
2023-02-06T00:30:21.895Z,5.30
2023-02-06T00:31:23.697Z,5.30
2023-02-06T00:32:25.667Z,5.40
2023-02-06T00:33:27.532Z,5.40
2023-02-06T00:34:29.369Z,5.40
2023-02-06T00:35:31.320Z,5.40
2023-02-06T00:36:33.842Z,5.40
2023-02-06T00:37:35.620Z,5.40
2023-02-06T00:38:38.355Z,5.40
2023-02-06T00:39:40.690Z,5.40
2023-02-06T00:40:42.518Z,5.40
2023-02-06T00:41:44.396Z,5.40
2023-02-06T00:42:46.197Z,5.50
2023-02-06T00:43:48.141Z,5.50
2023-02-06T00:44:49.957Z,5.40
2023-02-06T00:45:53.532Z,5.50
2023-02-06T00:46:58.807Z,5.50
2023-02-06T00:48:01.165Z,5.50
2023-02-06T00:49:03.114Z,5.50
2023-02-06T00:50:05.833Z,5.50
2023-02-06T00:51:07.722Z,5.40
2023-02-06T00:52:12.267Z,5.50
2023-02-06T00:53:14.032Z,5.50
2023-02-06T00:54:16.212Z,5.40
2023-02-06T00:55:18.062Z,5.40
2023-02-06T00:56:19.911Z,5.50
2023-02-06T00:57:21.848Z,5.40
2023-02-06T00:58:23.695Z,5.40
2023-02-06T00:59:25.458Z,5.40
2023-02-06T01:00:27.204Z,5.40
2023-02-06T01:01:29.208Z,5.40
2023-02-06T01:02:31.016Z,5.40
2023-02-06T01:03:34.400Z,5.40
2023-02-06T01:04:36.675Z,5.40
2023-02-06T01:05:38.757Z,5.40
2023-02-06T01:06:40.642Z,5.30
2023-02-06T01:07:42.837Z,5.30
2023-02-06T01:08:44.922Z,5.30
2023-02-06T01:09:46.694Z,5.30
2023-02-06T01:10:48.518Z,5.30
2023-02-06T01:11:50.445Z,5.30
2023-02-06T01:12:52.184Z,5.30
2023-02-06T01:13:54.007Z,5.30
2023-02-06T01:14:55.886Z,5.30
2023-02-06T01:15:57.978Z,5.30
2023-02-06T01:16:59.835Z,5.30
2023-02-06T01:18:01.663Z,5.30
2023-02-06T01:19:03.465Z,5.30
2023-02-06T01:20:07.614Z,5.30
2023-02-06T01:21:11.827Z,5.30
2023-02-06T01:22:13.641Z,5.30
2023-02-06T01:23:15.417Z,5.20
2023-02-06T01:24:18.958Z,5.20
2023-02-06T01:25:20.736Z,5.20
2023-02-06T01:26:26.868Z,5.20
2023-02-06T01:27:28.814Z,5.20
2023-02-06T01:28:30.890Z,5.20
2023-02-06T01:29:33.791Z,5.20
2023-02-06T01:30:35.586Z,5.20
2023-02-06T01:31:37.464Z,5.20
2023-02-06T01:32:40.983Z,5.20
2023-02-06T01:33:43.997Z,5.20
2023-02-06T01:34:46.304Z,5.20
2023-02-06T01:35:56.324Z,5.20
2023-02-06T01:36:58.147Z,5.20
2023-02-06T01:38:00.106Z,5.20
2023-02-06T01:39:01.951Z,5.20
2023-02-06T01:40:06.469Z,5.20
2023-02-06T01:41:09.624Z,5.20
2023-02-06T01:42:13.206Z,5.20
2023-02-06T01:43:18.844Z,5.20
2023-02-06T01:44:23.544Z,5.20
2023-02-06T01:45:38.301Z,5.20
2023-02-06T01:46:42.845Z,5.20
2023-02-06T01:47:44.603Z,5.20
2023-02-06T01:48:51.577Z,5.20
2023-02-06T01:49:53.405Z,5.20
2023-02-06T01:50:57.861Z,5.20
2023-02-06T01:52:03.080Z,5.20
2023-02-06T01:53:06.446Z,5.20
2023-02-06T01:54:09.581Z,5.20
2023-02-06T01:55:11.467Z,5.20
2023-02-06T01:56:19.446Z,5.20
2023-02-06T01:57:22.244Z,5.20
2023-02-06T01:58:30.428Z,5.10
2023-02-06T01:59:33.049Z,5.10
2023-02-06T02:00:34.884Z,5.10
2023-02-06T02:01:36.680Z,5.10
2023-02-06T02:02:43.521Z,5.10
2023-02-06T02:03:47.102Z,5.10
2023-02-06T02:04:49.355Z,5.10
2023-02-06T02:05:53.077Z,5.10
2023-02-06T02:07:21.881Z,5.10
2023-02-06T02:08:46.132Z,5.10
2023-02-06T02:09:47.907Z,5.10
2023-02-06T02:10:49.669Z,5.20
2023-02-06T02:11:51.531Z,5.20
2023-02-06T02:12:53.450Z,5.20
2023-02-06T02:13:56.865Z,5.20
2023-02-06T02:15:01.759Z,5.20
2023-02-06T02:16:37.636Z,5.20
2023-02-06T02:17:51.367Z,5.20
2023-02-06T02:19:19.432Z,5.10
2023-02-06T02:20:33.504Z,5.10
2023-02-06T02:22:02.679Z,5.10
2023-02-06T02:23:28.373Z,5.10
2023-02-06T02:24:52.984Z,5.00
2023-02-06T02:26:02.281Z,5.00
2023-02-06T02:27:22.842Z,5.00
2023-02-06T02:28:27.662Z,5.00
2023-02-06T02:30:07.499Z,5.00
2023-02-06T02:31:54.885Z,5.00
2023-02-06T02:33:30.327Z,5.00
2023-02-06T02:35:06.526Z,5.00
2023-02-06T02:36:17.806Z,5.00
2023-02-06T02:37:52.562Z,5.00
2023-02-06T02:39:21.450Z,5.00
2023-02-06T02:40:39.803Z,5.00
2023-02-06T02:41:56.938Z,4.90
2023-02-06T02:43:29.930Z,4.90
2023-02-06T02:44:51.484Z,5.00
2023-02-06T02:45:57.093Z,4.90
2023-02-06T02:47:05.697Z,4.90
2023-02-06T02:48:25.491Z,4.90
2023-02-06T02:49:31.770Z,4.90
2023-02-06T02:50:35.138Z,4.90
2023-02-06T02:51:38.187Z,4.90
2023-02-06T02:52:40.382Z,4.90
2023-02-06T02:53:42.291Z,4.90
2023-02-06T02:54:44.248Z,4.90
2023-02-06T02:55:46.304Z,4.90
2023-02-06T02:56:48.833Z,4.90
2023-02-06T02:57:55.104Z,4.90
2023-02-06T02:59:05.171Z,4.90
2023-02-06T03:00:08.002Z,4.90
2023-02-06T03:01:17.573Z,4.90
2023-02-06T03:02:25.349Z,4.90
2023-02-06T03:03:30.234Z,4.90
2023-02-06T03:04:39.838Z,4.80
2023-02-06T03:06:06.873Z,4.90
2023-02-06T03:07:26.818Z,4.80
2023-02-06T03:08:41.302Z,4.80
2023-02-06T03:09:49.227Z,4.80
2023-02-06T03:11:18.305Z,4.70
2023-02-06T03:12:23.668Z,4.70
2023-02-06T03:14:02.584Z,4.70
2023-02-06T03:15:13.959Z,4.70
2023-02-06T03:16:26.189Z,4.60
2023-02-06T03:17:37.916Z,4.60
2023-02-06T03:18:42.703Z,4.60
2023-02-06T03:19:49.973Z,4.50
2023-02-06T03:20:52.280Z,4.50
2023-02-06T03:21:54.110Z,4.50
2023-02-06T03:22:57.237Z,4.40
2023-02-06T03:24:03.158Z,4.40
2023-02-06T03:25:10.416Z,4.30
2023-02-06T03:26:16.313Z,4.30
2023-02-06T03:27:20.328Z,4.20
2023-02-06T03:28:28.189Z,4.20
2023-02-06T03:29:33.871Z,4.20
2023-02-06T03:30:36.849Z,4.10
2023-02-06T03:31:47.228Z,4.10
2023-02-06T03:32:52.448Z,4.10
2023-02-06T03:34:07.564Z,4.10
2023-02-06T03:35:26.151Z,4.10
2023-02-06T03:36:28.392Z,4.10
2023-02-06T03:37:30.887Z,4.10
2023-02-06T03:38:33.304Z,4.10
2023-02-06T03:39:35.384Z,4.10
2023-02-06T03:40:40.873Z,4.10
2023-02-06T03:41:44.138Z,4.10
2023-02-06T03:42:51.080Z,4.10
2023-02-06T03:43:54.210Z,4.10
2023-02-06T03:45:04.442Z,4.10
2023-02-06T03:46:07.182Z,4.10
2023-02-06T03:47:10.946Z,4.10
2023-02-06T03:48:27.446Z,4.00
2023-02-06T03:49:32.007Z,4.00
2023-02-06T03:50:35.295Z,4.00
2023-02-06T03:51:43.818Z,3.90
2023-02-06T03:52:49.861Z,3.90
2023-02-06T03:53:54.185Z,3.90
2023-02-06T03:55:04.943Z,3.80
2023-02-06T03:56:17.360Z,3.80
2023-02-06T03:57:21.352Z,3.80
2023-02-06T03:58:24.551Z,3.80
2023-02-06T03:59:27.015Z,3.70
2023-02-06T04:00:30.800Z,3.70
2023-02-06T04:01:33.104Z,3.70
2023-02-06T04:02:36.334Z,3.70
2023-02-06T04:03:38.107Z,3.70
2023-02-06T04:04:42.157Z,3.70
2023-02-06T04:05:43.958Z,3.70
2023-02-06T04:06:45.996Z,3.60
2023-02-06T04:07:47.756Z,3.70
2023-02-06T04:08:49.735Z,3.70
2023-02-06T04:09:51.889Z,3.70
2023-02-06T04:10:53.656Z,3.70
2023-02-06T04:11:55.507Z,3.70
2023-02-06T04:12:57.628Z,3.70
2023-02-06T04:13:59.441Z,3.60
2023-02-06T04:15:01.207Z,3.70
2023-02-06T04:16:03.610Z,3.70
2023-02-06T04:17:06.424Z,3.70
2023-02-06T04:18:08.265Z,3.60
2023-02-06T04:19:10.404Z,3.60
2023-02-06T04:20:12.551Z,3.60
2023-02-06T04:21:14.329Z,3.60
2023-02-06T04:22:17.060Z,3.60
2023-02-06T04:23:22.106Z,3.60
2023-02-06T04:24:24.054Z,3.60
2023-02-06T04:25:26.448Z,3.60
2023-02-06T04:26:28.218Z,3.60
2023-02-06T04:27:30.776Z,3.60
2023-02-06T04:28:32.603Z,3.60
2023-02-06T04:29:34.385Z,3.60
2023-02-06T04:30:36.359Z,3.60
2023-02-06T04:31:38.694Z,3.60
2023-02-06T04:32:41.232Z,3.60
2023-02-06T04:33:42.993Z,3.60
2023-02-06T04:34:44.816Z,3.60
2023-02-06T04:35:47.873Z,3.60
2023-02-06T04:36:49.964Z,3.60
2023-02-06T04:37:52.211Z,3.60
2023-02-06T04:38:53.995Z,3.60
2023-02-06T04:39:55.754Z,3.60
2023-02-06T04:41:03.708Z,3.60
2023-02-06T04:42:06.571Z,3.60
2023-02-06T04:43:08.708Z,3.60
2023-02-06T04:44:10.458Z,3.60
2023-02-06T04:45:12.588Z,3.60
2023-02-06T04:46:14.411Z,3.60
2023-02-06T04:47:16.207Z,3.60
2023-02-06T04:48:17.966Z,3.60
2023-02-06T04:49:19.715Z,3.60
2023-02-06T04:50:21.732Z,3.60
2023-02-06T04:51:23.495Z,3.60
2023-02-06T04:52:25.282Z,3.60
2023-02-06T04:53:27.187Z,3.60
2023-02-06T04:54:30.688Z,3.50
2023-02-06T04:55:35.638Z,3.50
2023-02-06T04:56:37.618Z,3.50
2023-02-06T04:57:39.405Z,3.50
2023-02-06T04:58:41.159Z,3.50
2023-02-06T04:59:43.073Z,3.50
2023-02-06T05:00:44.804Z,3.50
2023-02-06T05:01:46.619Z,3.50
2023-02-06T05:02:48.400Z,3.40
2023-02-06T05:03:50.444Z,3.40
2023-02-06T05:04:52.330Z,3.40
2023-02-06T05:05:54.454Z,3.40
2023-02-06T05:06:56.268Z,3.40
2023-02-06T05:07:58.043Z,3.40
2023-02-06T05:09:00.247Z,3.40
2023-02-06T05:10:02.600Z,3.40
2023-02-06T05:11:04.886Z,3.40
2023-02-06T05:12:06.863Z,3.40
2023-02-06T05:13:08.801Z,3.40
2023-02-06T05:14:10.765Z,3.40
2023-02-06T05:15:12.783Z,3.40
2023-02-06T05:16:17.048Z,3.40
2023-02-06T05:17:18.826Z,3.40
2023-02-06T05:18:21.332Z,3.40
2023-02-06T05:19:23.233Z,3.40
2023-02-06T05:20:24.996Z,3.40
2023-02-06T05:21:27.452Z,3.40
2023-02-06T05:22:29.300Z,3.30
2023-02-06T05:23:32.415Z,3.30
2023-02-06T05:24:34.204Z,3.40
2023-02-06T05:25:37.525Z,3.30
2023-02-06T05:26:39.423Z,3.30
2023-02-06T05:27:41.486Z,3.30
2023-02-06T05:28:43.691Z,3.30
2023-02-06T05:29:45.763Z,3.30
2023-02-06T05:30:47.660Z,3.30
2023-02-06T05:31:49.534Z,3.30
2023-02-06T05:32:51.972Z,3.30
2023-02-06T05:33:55.107Z,3.30
2023-02-06T05:34:56.885Z,3.30
2023-02-06T05:36:06.203Z,3.30
2023-02-06T05:37:07.984Z,3.20
2023-02-06T05:38:09.700Z,3.20
2023-02-06T05:39:11.546Z,3.20
2023-02-06T05:40:13.709Z,3.20
2023-02-06T05:41:16.292Z,3.20
2023-02-06T05:42:18.091Z,3.10
2023-02-06T05:43:19.916Z,3.10
2023-02-06T05:44:21.729Z,3.10
2023-02-06T05:45:24.956Z,3.10
2023-02-06T05:46:27.214Z,3.10
2023-02-06T05:47:28.959Z,3.10
2023-02-06T05:48:30.787Z,3.10
2023-02-06T05:49:32.601Z,3.10
2023-02-06T05:50:34.429Z,3.00
2023-02-06T05:51:36.333Z,3.00
2023-02-06T05:52:38.147Z,3.00
2023-02-06T05:53:39.936Z,3.00
2023-02-06T05:54:41.893Z,3.00
2023-02-06T05:55:44.010Z,3.00
2023-02-06T05:56:46.066Z,3.00
2023-02-06T05:57:47.964Z,3.00
2023-02-06T05:58:49.776Z,2.90
2023-02-06T05:59:51.491Z,3.00
2023-02-06T06:00:53.359Z,3.00
2023-02-06T06:01:55.198Z,3.00
2023-02-06T06:02:57.058Z,3.00
2023-02-06T06:03:58.846Z,3.00
2023-02-06T06:05:00.645Z,3.00
2023-02-06T06:06:02.688Z,3.00
2023-02-06T06:07:04.867Z,3.00
2023-02-06T06:08:06.833Z,3.00
2023-02-06T06:09:08.769Z,3.00
2023-02-06T06:10:11.096Z,3.00
2023-02-06T06:11:13.033Z,3.00
2023-02-06T06:12:15.026Z,3.00
2023-02-06T06:13:16.855Z,3.00
2023-02-06T06:14:19.166Z,3.00
2023-02-06T06:15:20.995Z,3.00
2023-02-06T06:16:23.005Z,3.00
2023-02-06T06:17:24.891Z,3.00
2023-02-06T06:18:26.926Z,3.10
2023-02-06T06:19:28.748Z,3.10
2023-02-06T06:20:30.485Z,3.10
2023-02-06T06:21:32.393Z,3.10
2023-02-06T06:22:34.242Z,3.10
2023-02-06T06:23:35.959Z,3.10
2023-02-06T06:24:38.755Z,3.10
2023-02-06T06:25:40.709Z,3.10
2023-02-06T06:26:42.668Z,3.10
2023-02-06T06:27:44.739Z,3.10
2023-02-06T06:28:46.698Z,3.10
2023-02-06T06:29:48.536Z,3.10
2023-02-06T06:30:50.319Z,3.10
2023-02-06T06:31:52.336Z,3.10
2023-02-06T06:32:54.422Z,3.10
2023-02-06T06:33:56.239Z,3.10
2023-02-06T06:34:58.051Z,3.10
2023-02-06T06:36:00.610Z,3.10
2023-02-06T06:37:02.418Z,3.10
2023-02-06T06:38:05.041Z,3.20
2023-02-06T06:39:06.871Z,3.20
2023-02-06T06:40:09.127Z,3.20
2023-02-06T06:41:11.225Z,3.10
2023-02-06T06:42:13.087Z,3.10
2023-02-06T06:43:14.896Z,3.20
2023-02-06T06:44:16.693Z,3.10
2023-02-06T06:45:18.547Z,3.20
2023-02-06T06:46:20.429Z,3.20
2023-02-06T06:47:24.958Z,3.10
2023-02-06T06:48:26.929Z,3.20
2023-02-06T06:49:29.129Z,3.10
2023-02-06T06:50:31.051Z,3.10
2023-02-06T06:51:33.772Z,3.20
2023-02-06T06:52:35.630Z,3.20
2023-02-06T06:53:40.004Z,3.20
2023-02-06T06:54:42.068Z,3.20
2023-02-06T06:55:43.893Z,3.20
2023-02-06T06:56:46.030Z,3.20
2023-02-06T06:57:47.884Z,3.20
2023-02-06T06:58:50.210Z,3.20
2023-02-06T06:59:52.444Z,3.20
2023-02-06T07:00:54.319Z,3.20
2023-02-06T07:01:56.066Z,3.20
2023-02-06T07:02:58.016Z,3.20
2023-02-06T07:04:00.434Z,3.20
2023-02-06T07:05:06.025Z,3.20
2023-02-06T07:06:08.225Z,3.20
2023-02-06T07:07:11.591Z,3.20
2023-02-06T07:08:13.471Z,3.30
2023-02-06T07:09:18.403Z,3.30
2023-02-06T07:10:20.369Z,3.30
2023-02-06T07:11:26.207Z,3.30
2023-02-06T07:12:28.549Z,3.30
2023-02-06T07:13:30.275Z,3.30
2023-02-06T07:14:34.973Z,3.30
2023-02-06T07:15:36.957Z,3.30
2023-02-06T07:16:39.002Z,3.30
2023-02-06T07:17:40.881Z,3.30
2023-02-06T07:18:43.192Z,3.30
2023-02-06T07:19:56.920Z,3.30
2023-02-06T07:21:03.398Z,3.30
2023-02-06T07:22:05.693Z,3.30
2023-02-06T07:23:07.798Z,3.30
2023-02-06T07:24:10.339Z,3.30
2023-02-06T07:25:13.444Z,3.30
2023-02-06T07:26:15.447Z,3.40
2023-02-06T07:27:17.591Z,3.40
2023-02-06T07:28:19.429Z,3.40
2023-02-06T07:29:21.276Z,3.40
2023-02-06T07:30:23.238Z,3.40
2023-02-06T07:31:25.292Z,3.40
2023-02-06T07:32:27.406Z,3.40
2023-02-06T07:33:32.877Z,3.40
2023-02-06T07:34:35.229Z,3.50
2023-02-06T07:35:37.592Z,3.50
2023-02-06T07:36:39.629Z,3.50
2023-02-06T07:37:44.358Z,3.50
2023-02-06T07:38:46.522Z,3.50
2023-02-06T07:39:48.424Z,3.50
2023-02-06T07:40:50.200Z,3.50
2023-02-06T07:41:52.251Z,3.60
2023-02-06T07:42:55.688Z,3.60
2023-02-06T07:44:10.044Z,3.60
2023-02-06T07:45:11.799Z,3.60
2023-02-06T07:46:13.691Z,3.60
2023-02-06T07:47:15.483Z,3.60
2023-02-06T07:48:17.310Z,3.70
2023-02-06T07:49:19.484Z,3.60
2023-02-06T07:50:21.387Z,3.70
2023-02-06T07:51:23.236Z,3.70
2023-02-06T07:52:25.082Z,3.70
2023-02-06T07:53:26.876Z,3.70
2023-02-06T07:54:28.861Z,3.80
2023-02-06T07:55:31.017Z,3.80
2023-02-06T07:56:32.863Z,3.80
2023-02-06T07:57:34.710Z,3.80
2023-02-06T07:58:36.615Z,3.80
2023-02-06T07:59:38.397Z,3.80
2023-02-06T08:00:41.849Z,3.80
2023-02-06T08:01:43.674Z,3.80
2023-02-06T08:02:45.632Z,3.90
2023-02-06T08:03:50.674Z,3.90
2023-02-06T08:04:52.475Z,3.90
2023-02-06T08:05:54.304Z,3.90
2023-02-06T08:06:56.062Z,3.90
2023-02-06T08:07:58.237Z,3.90
2023-02-06T08:09:00.052Z,4.00
2023-02-06T08:10:01.935Z,4.00
2023-02-06T08:11:12.677Z,4.00
2023-02-06T08:12:14.414Z,4.00
2023-02-06T08:13:16.290Z,4.10
2023-02-06T08:14:18.206Z,4.10
2023-02-06T08:15:20.001Z,4.10
2023-02-06T08:16:23.378Z,4.10
2023-02-06T08:17:25.404Z,4.10
2023-02-06T08:18:27.176Z,4.20
2023-02-06T08:19:28.933Z,4.20
2023-02-06T08:20:30.851Z,4.20
2023-02-06T08:21:33.314Z,4.20
2023-02-06T08:22:35.146Z,4.20
2023-02-06T08:23:37.475Z,4.30
2023-02-06T08:24:39.362Z,4.30
2023-02-06T08:25:41.102Z,4.30
2023-02-06T08:26:44.039Z,4.30
2023-02-06T08:27:45.945Z,4.40
2023-02-06T08:28:49.477Z,4.40
2023-02-06T08:29:51.781Z,4.40
2023-02-06T08:30:53.778Z,4.40
2023-02-06T08:31:55.892Z,4.40
2023-02-06T08:32:57.995Z,4.50
2023-02-06T08:33:59.791Z,4.50
2023-02-06T08:35:01.710Z,4.50
2023-02-06T08:36:04.518Z,4.60
2023-02-06T08:37:06.354Z,4.60
2023-02-06T08:38:08.188Z,4.60
2023-02-06T08:39:12.931Z,4.60
2023-02-06T08:40:15.205Z,4.60
2023-02-06T08:41:22.229Z,4.60
2023-02-06T08:42:24.186Z,4.70
2023-02-06T08:43:26.405Z,4.70
2023-02-06T08:44:28.451Z,4.80
2023-02-06T08:45:31.927Z,4.80
2023-02-06T08:46:34.168Z,4.80
2023-02-06T08:47:36.176Z,4.80
2023-02-06T08:48:38.195Z,4.90
2023-02-06T08:49:40.174Z,4.90
2023-02-06T08:50:42.213Z,5.00
2023-02-06T08:51:46.410Z,5.00
2023-02-06T08:52:48.194Z,5.10
2023-02-06T08:53:49.995Z,5.10
2023-02-06T08:54:52.305Z,5.10
2023-02-06T08:56:01.058Z,5.20
2023-02-06T08:57:03.270Z,5.20
2023-02-06T08:58:05.270Z,5.20
2023-02-06T08:59:08.375Z,5.30
2023-02-06T09:00:10.739Z,5.30
2023-02-06T09:01:15.549Z,5.30
2023-02-06T09:02:17.569Z,5.40
2023-02-06T09:03:20.955Z,5.40
2023-02-06T09:04:23.324Z,5.50
2023-02-06T09:05:25.216Z,5.50
2023-02-06T09:06:28.075Z,5.50
2023-02-06T09:07:31.232Z,5.60
2023-02-06T09:08:33.677Z,5.60
2023-02-06T09:09:35.587Z,5.70
2023-02-06T09:10:37.882Z,5.70
2023-02-06T09:11:40.082Z,5.80
2023-02-06T09:12:42.086Z,5.80
2023-02-06T09:13:49.093Z,5.80
2023-02-06T09:14:51.239Z,5.90
2023-02-06T09:15:53.772Z,5.80
2023-02-06T09:16:58.279Z,5.90
2023-02-06T09:18:00.048Z,5.90
2023-02-06T09:19:03.414Z,5.90
2023-02-06T09:20:05.400Z,5.90
2023-02-06T09:21:11.609Z,6.00
2023-02-06T09:22:13.538Z,6.00
2023-02-06T09:23:19.087Z,6.10
2023-02-06T09:24:22.627Z,6.10
2023-02-06T09:25:24.404Z,6.20
2023-02-06T09:26:31.659Z,6.30
2023-02-06T09:27:36.792Z,6.30
2023-02-06T09:28:41.458Z,6.40
2023-02-06T09:29:43.279Z,6.40
2023-02-06T09:30:46.385Z,6.50
2023-02-06T09:31:48.329Z,6.50
2023-02-06T09:32:50.183Z,6.50
2023-02-06T09:33:52.409Z,6.60
2023-02-06T09:34:54.318Z,6.60
2023-02-06T09:36:14.190Z,6.70
2023-02-06T09:37:15.986Z,6.80
2023-02-06T09:38:17.781Z,6.80
2023-02-06T09:39:20.594Z,6.80
2023-02-06T09:40:27.113Z,6.90
2023-02-06T09:41:46.266Z,6.90
2023-02-06T09:42:48.760Z,7.00
2023-02-06T09:43:59.009Z,7.00
2023-02-06T09:45:13.928Z,7.10
2023-02-06T09:46:21.231Z,7.10
2023-02-06T09:47:45.751Z,7.20
2023-02-06T09:48:50.909Z,7.30
2023-02-06T09:49:58.431Z,7.30
2023-02-06T09:51:23.375Z,7.40
2023-02-06T09:52:50.913Z,7.40
2023-02-06T09:54:05.612Z,7.50
2023-02-06T09:55:39.629Z,7.50
2023-02-06T09:57:03.430Z,7.60
2023-02-06T09:58:13.616Z,7.70
2023-02-06T10:00:04.378Z,7.70
2023-02-06T10:01:38.886Z,7.90
2023-02-06T10:03:20.436Z,7.90
2023-02-06T10:05:06.791Z,8.00
2023-02-06T10:06:22.468Z,8.10
2023-02-06T10:07:45.172Z,8.10
2023-02-06T10:08:58.242Z,8.10
2023-02-06T10:10:07.659Z,8.10
2023-02-06T10:11:31.201Z,8.20
2023-02-06T10:12:47.887Z,8.20
2023-02-06T10:13:56.146Z,8.30
2023-02-06T10:15:11.327Z,8.30
2023-02-06T10:16:46.743Z,8.40
2023-02-06T10:18:01.580Z,8.40
2023-02-06T10:19:09.572Z,8.40
2023-02-06T10:20:32.503Z,8.40
2023-02-06T10:21:41.324Z,8.40
2023-02-06T10:22:57.256Z,8.30
2023-02-06T10:24:19.645Z,8.30
2023-02-06T10:25:32.857Z,8.30
2023-02-06T10:26:39.183Z,8.40
2023-02-06T10:27:43.945Z,8.40
2023-02-06T10:28:50.413Z,8.50
2023-02-06T10:29:52.371Z,8.50
2023-02-06T10:31:18.627Z,8.60
2023-02-06T10:32:48.005Z,8.70
2023-02-06T10:34:07.719Z,8.70
2023-02-06T10:35:12.315Z,8.80
2023-02-06T10:36:25.233Z,8.80
2023-02-06T10:37:39.651Z,8.80
2023-02-06T10:39:15.292Z,8.80
2023-02-06T10:40:46.126Z,8.80
2023-02-06T10:42:17.206Z,8.70
2023-02-06T10:43:33.676Z,8.60
2023-02-06T10:44:51.250Z,8.50
2023-02-06T10:46:28.490Z,8.40
2023-02-06T10:47:41.576Z,8.40
2023-02-06T10:48:53.588Z,8.40
2023-02-06T10:50:22.964Z,8.50
2023-02-06T10:51:36.312Z,8.50
2023-02-06T10:52:39.934Z,8.60
2023-02-06T10:54:06.638Z,8.60
2023-02-06T10:55:29.057Z,8.80
2023-02-06T10:56:40.340Z,8.90
2023-02-06T10:57:45.090Z,9.00
2023-02-06T10:58:56.065Z,9.20
2023-02-06T11:00:01.332Z,9.30
2023-02-06T11:01:16.831Z,9.50
2023-02-06T11:03:06.866Z,9.70
2023-02-06T11:04:15.068Z,9.90
2023-02-06T11:05:21.009Z,10.10
2023-02-06T11:06:26.153Z,10.20
2023-02-06T11:07:42.825Z,10.30
2023-02-06T11:08:46.447Z,10.30
2023-02-06T11:09:48.422Z,10.30
2023-02-06T11:10:50.480Z,10.30
2023-02-06T11:11:56.111Z,10.20
2023-02-06T11:13:14.056Z,10.20
2023-02-06T11:14:17.981Z,10.10
2023-02-06T11:15:28.079Z,10.00
2023-02-06T11:16:31.089Z,9.90
2023-02-06T11:17:33.374Z,9.90
2023-02-06T11:18:44.221Z,9.90
2023-02-06T11:19:51.338Z,9.80
2023-02-06T11:20:55.852Z,9.80
2023-02-06T11:22:07.268Z,9.90
2023-02-06T11:23:29.704Z,9.90
2023-02-06T11:24:31.909Z,9.90
2023-02-06T11:25:34.312Z,9.80
2023-02-06T11:26:44.203Z,9.80
2023-02-06T11:27:46.543Z,9.80
2023-02-06T11:28:56.384Z,9.80
2023-02-06T11:30:03.339Z,9.80
2023-02-06T11:31:07.477Z,9.70
2023-02-06T11:32:30.339Z,9.70
2023-02-06T11:33:53.627Z,9.80
2023-02-06T11:34:59.968Z,9.70
2023-02-06T11:36:05.283Z,9.70
2023-02-06T11:37:33.157Z,9.60
2023-02-06T11:38:35.028Z,9.60
2023-02-06T11:39:38.774Z,9.60
2023-02-06T11:40:41.246Z,9.60
2023-02-06T11:41:58.170Z,9.50
2023-02-06T11:43:40.813Z,9.60
2023-02-06T11:44:44.503Z,9.50
2023-02-06T11:45:48.347Z,9.50
2023-02-06T11:46:50.487Z,9.50
2023-02-06T11:47:52.384Z,9.40
2023-02-06T11:48:58.834Z,9.40
2023-02-06T11:50:27.135Z,9.30
2023-02-06T11:52:03.724Z,9.30
2023-02-06T11:53:08.402Z,9.30
2023-02-06T11:54:20.362Z,9.30
2023-02-06T11:55:28.262Z,9.40
2023-02-06T11:56:31.753Z,9.50
2023-02-06T11:57:34.203Z,9.60
2023-02-06T11:58:36.854Z,9.60
2023-02-06T11:59:56.795Z,9.70
2023-02-06T12:01:05.652Z,9.80
2023-02-06T12:02:26.838Z,9.80
2023-02-06T12:03:47.676Z,9.90
2023-02-06T12:04:50.550Z,9.90
2023-02-06T12:05:53.567Z,9.90
2023-02-06T12:07:01.394Z,9.90
2023-02-06T12:08:13.570Z,9.90
2023-02-06T12:09:15.280Z,9.90
2023-02-06T12:10:20.318Z,9.80
2023-02-06T12:11:40.075Z,9.80
2023-02-06T12:12:46.846Z,9.70
2023-02-06T12:14:18.098Z,9.70
2023-02-06T12:15:46.423Z,9.60
2023-02-06T12:16:50.119Z,9.60
2023-02-06T12:17:56.695Z,9.50
2023-02-06T12:19:01.134Z,9.60
2023-02-06T12:20:18.737Z,9.50
2023-02-06T12:21:35.332Z,9.50
2023-02-06T12:22:42.887Z,9.50
2023-02-06T12:24:06.530Z,9.50
2023-02-06T12:25:26.397Z,9.40
2023-02-06T12:26:30.570Z,9.30
2023-02-06T12:27:39.612Z,9.20
2023-02-06T12:28:59.551Z,9.10
2023-02-06T12:30:22.279Z,9.00
2023-02-06T12:31:59.705Z,9.00
2023-02-06T12:33:22.426Z,8.90
2023-02-06T12:34:31.650Z,8.90
2023-02-06T12:36:00.739Z,8.80
2023-02-06T12:37:20.835Z,8.80
2023-02-06T12:38:41.760Z,8.90
2023-02-06T12:39:45.439Z,8.90
2023-02-06T12:41:06.855Z,8.90
2023-02-06T12:42:27.333Z,9.10
2023-02-06T12:43:32.634Z,9.10
2023-02-06T12:44:40.608Z,9.20
2023-02-06T12:45:51.986Z,9.30
2023-02-06T12:47:05.197Z,9.40
2023-02-06T12:48:15.673Z,9.40
2023-02-06T12:49:37.554Z,9.50
2023-02-06T12:50:47.245Z,9.50
2023-02-06T12:52:04.901Z,9.50
2023-02-06T12:53:32.260Z,9.50
2023-02-06T12:54:40.208Z,9.40
2023-02-06T12:55:50.223Z,9.30
2023-02-06T12:56:59.058Z,9.30
2023-02-06T12:58:02.173Z,9.20
2023-02-06T12:59:09.735Z,9.20
2023-02-06T13:00:17.475Z,9.10
2023-02-06T13:01:49.138Z,9.10
2023-02-06T13:03:21.026Z,9.10
2023-02-06T13:04:26.187Z,9.10
2023-02-06T13:05:29.963Z,9.10
2023-02-06T13:07:19.939Z,9.10
2023-02-06T13:08:42.885Z,9.20
2023-02-06T13:09:54.395Z,9.30
2023-02-06T13:11:09.810Z,9.40
2023-02-06T13:12:27.172Z,9.40
2023-02-06T13:13:40.602Z,9.40
2023-02-06T13:14:51.350Z,9.40
2023-02-06T13:16:03.349Z,9.40
2023-02-06T13:17:13.543Z,9.30
2023-02-06T13:18:39.641Z,9.30
2023-02-06T13:19:41.728Z,9.20
2023-02-06T13:21:17.656Z,9.20
2023-02-06T13:22:20.117Z,9.10
2023-02-06T13:23:24.309Z,9.00
2023-02-06T13:24:27.172Z,9.00
2023-02-06T13:25:31.769Z,8.90
2023-02-06T13:26:51.495Z,8.90
2023-02-06T13:27:54.459Z,8.90
2023-02-06T13:29:00.120Z,8.80
2023-02-06T13:30:39.813Z,8.80
2023-02-06T13:31:42.084Z,8.80
2023-02-06T13:32:48.379Z,8.80
2023-02-06T13:33:57.422Z,8.70
2023-02-06T13:35:16.261Z,8.70
2023-02-06T13:36:26.897Z,8.70
2023-02-06T13:37:42.016Z,8.80
2023-02-06T13:38:43.908Z,8.80
2023-02-06T13:39:49.510Z,8.80
2023-02-06T13:41:13.098Z,8.70
2023-02-06T13:42:46.457Z,8.80
2023-02-06T13:43:57.120Z,8.80
2023-02-06T13:45:01.334Z,8.70
2023-02-06T13:46:14.414Z,8.70
2023-02-06T13:47:45.318Z,8.70
2023-02-06T13:48:59.229Z,8.70
2023-02-06T13:50:16.055Z,8.70
2023-02-06T13:51:34.137Z,8.80
2023-02-06T13:53:01.140Z,8.80
2023-02-06T13:54:39.645Z,8.80
2023-02-06T13:55:53.382Z,8.80
2023-02-06T13:57:15.510Z,8.90
2023-02-06T13:58:47.597Z,8.90
2023-02-06T14:00:16.995Z,8.90
2023-02-06T14:01:25.503Z,8.90
2023-02-06T14:02:34.609Z,8.90
2023-02-06T14:03:38.318Z,8.90
2023-02-06T14:04:41.314Z,8.90
2023-02-06T14:06:07.278Z,8.90
2023-02-06T14:07:29.544Z,8.90
2023-02-06T14:08:44.744Z,8.90
2023-02-06T14:10:05.210Z,8.90
2023-02-06T14:11:40.651Z,8.90
2023-02-06T14:13:03.375Z,8.80
2023-02-06T14:14:21.736Z,8.90
2023-02-06T14:16:00.145Z,8.90
2023-02-06T14:17:16.034Z,9.00
2023-02-06T14:18:39.980Z,9.10
2023-02-06T14:20:00.973Z,9.20
2023-02-06T14:21:31.661Z,9.20
2023-02-06T14:22:50.240Z,9.30
2023-02-06T14:24:19.879Z,9.30
2023-02-06T14:25:33.372Z,9.40
2023-02-06T14:26:49.917Z,9.40
2023-02-06T14:27:59.592Z,9.40
2023-02-06T14:29:56.571Z,9.40
2023-02-06T14:31:15.404Z,9.30
2023-02-06T14:32:36.634Z,9.30
2023-02-06T14:34:07.176Z,9.20
2023-02-06T14:35:21.928Z,9.20
2023-02-06T14:36:31.040Z,9.20
2023-02-06T14:37:51.587Z,9.10
2023-02-06T14:39:30.477Z,9.10
2023-02-06T14:40:41.586Z,9.10
2023-02-06T14:41:44.028Z,9.00
2023-02-06T14:42:46.459Z,9.00
2023-02-06T14:43:50.896Z,8.90
2023-02-06T14:45:06.337Z,8.90
2023-02-06T14:46:13.621Z,8.90
2023-02-06T14:47:22.518Z,8.80
2023-02-06T14:48:30.350Z,8.80
2023-02-06T14:49:36.003Z,8.80
2023-02-06T14:50:40.637Z,8.80
2023-02-06T14:51:42.649Z,8.80
2023-02-06T14:52:48.309Z,8.70
2023-02-06T14:54:01.542Z,8.80
2023-02-06T14:55:39.006Z,8.70
2023-02-06T14:56:41.200Z,8.70
2023-02-06T14:57:48.103Z,8.70
2023-02-06T14:58:51.332Z,8.70
2023-02-06T14:59:56.784Z,8.70
2023-02-06T15:01:19.148Z,8.70